createdAt,value
2019-05-03T00:00:19.281Z,9.00
2019-05-03T00:01:47.685Z,9.10
2019-05-03T00:02:45.824Z,8.67
2019-05-03T00:03:22.485Z,8.13
2019-05-03T00:03:58.183Z,9.60
2019-05-03T00:04:34.619Z,9.38
2019-05-03T00:05:32.470Z,9.83
2019-05-03T00:06:08.148Z,9.10
2019-05-03T00:06:43.750Z,9.50
2019-05-03T00:07:19.518Z,8.73
2019-05-03T00:07:58.163Z,9.63
2019-05-03T00:08:33.644Z,9.47
2019-05-03T00:09:11.921Z,9.73
2019-05-03T00:09:47.721Z,8.80
2019-05-03T00:10:23.268Z,9.87
2019-05-03T00:10:58.722Z,9.70
2019-05-03T00:11:34.149Z,9.47
2019-05-03T00:12:09.624Z,10.00
2019-05-03T00:12:45.160Z,9.60
2019-05-03T00:13:21.856Z,9.43
2019-05-03T00:13:57.385Z,9.07
2019-05-03T00:14:32.817Z,10.00
2019-05-03T00:15:17.924Z,9.57
2019-05-03T00:16:12.370Z,9.67
2019-05-03T00:16:48.881Z,9.07
2019-05-03T00:17:24.609Z,9.70
2019-05-03T00:18:02.325Z,9.57
2019-05-03T00:18:38.857Z,10.03
2019-05-03T00:19:14.301Z,9.23
2019-05-03T00:19:49.760Z,9.20
2019-05-03T00:20:25.988Z,9.90
2019-05-03T00:21:02.123Z,10.20
2019-05-03T00:21:38.005Z,9.23
2019-05-03T00:22:15.193Z,9.45
2019-05-03T00:22:52.429Z,8.60
2019-05-03T00:23:28.058Z,9.13
2019-05-03T00:24:03.561Z,8.87
2019-05-03T00:24:39.362Z,9.30
2019-05-03T00:25:15.034Z,9.30
2019-05-03T00:25:52.333Z,9.07
2019-05-03T00:26:27.974Z,9.40
2019-05-03T00:27:03.464Z,8.80
2019-05-03T00:27:39.204Z,8.60
2019-05-03T00:28:14.637Z,9.37
2019-05-03T00:28:52.018Z,9.70
2019-05-03T00:29:27.634Z,9.23
2019-05-03T00:30:04.108Z,9.10
2019-05-03T00:30:39.964Z,9.50
2019-05-03T00:31:15.767Z,9.13
2019-05-03T00:31:51.654Z,9.73
2019-05-03T00:32:28.590Z,8.75
2019-05-03T00:33:04.394Z,9.50
2019-05-03T00:33:42.260Z,9.23
2019-05-03T00:34:21.883Z,9.80
2019-05-03T00:35:01.652Z,8.67
2019-05-03T00:35:54.536Z,9.33
2019-05-03T00:36:38.841Z,9.57
2019-05-03T00:37:15.097Z,8.90
2019-05-03T00:37:52.587Z,8.93
2019-05-03T00:38:28.189Z,9.70
2019-05-03T00:39:16.803Z,9.20
2019-05-03T00:40:04.843Z,9.23
2019-05-03T00:40:41.677Z,10.57
2019-05-03T00:41:17.250Z,9.70
2019-05-03T00:41:53.108Z,10.40
2019-05-03T00:42:28.579Z,9.53
2019-05-03T00:43:04.104Z,9.93
2019-05-03T00:43:39.594Z,10.47
2019-05-03T00:44:15.118Z,10.90
2019-05-03T00:44:51.709Z,11.20
2019-05-03T00:45:27.296Z,11.27
2019-05-03T00:46:02.838Z,10.63
2019-05-03T00:46:38.931Z,11.13
2019-05-03T00:47:14.491Z,10.90
2019-05-03T00:47:50.060Z,11.20
2019-05-03T00:48:25.530Z,12.07
2019-05-03T00:49:00.967Z,10.53
2019-05-03T00:49:36.457Z,11.30
2019-05-03T00:50:12.150Z,11.67
2019-05-03T00:50:47.654Z,11.73
2019-05-03T00:51:23.102Z,12.23
2019-05-03T00:51:58.583Z,10.97
2019-05-03T00:52:34.722Z,11.70
2019-05-03T00:53:11.731Z,11.37
2019-05-03T00:53:48.195Z,12.03
2019-05-03T00:54:24.332Z,11.97
2019-05-03T00:55:02.036Z,12.23
2019-05-03T00:55:37.699Z,12.27
2019-05-03T00:56:13.236Z,12.10
2019-05-03T00:56:49.646Z,12.97
2019-05-03T00:57:27.495Z,12.83
2019-05-03T00:58:03.089Z,13.03
2019-05-03T00:58:52.967Z,14.00
2019-05-03T00:59:28.914Z,14.07
2019-05-03T01:00:05.167Z,13.17
2019-05-03T01:00:41.746Z,14.23
2019-05-03T01:01:17.862Z,14.77
2019-05-03T01:01:53.326Z,14.77
2019-05-03T01:02:28.792Z,14.50
2019-05-03T01:03:05.220Z,13.85
2019-05-03T01:03:41.852Z,15.07
2019-05-03T01:04:17.880Z,14.73
2019-05-03T01:04:53.301Z,14.80
2019-05-03T01:05:29.392Z,14.50
2019-05-03T01:06:05.296Z,15.23
2019-05-03T01:06:42.332Z,15.07
2019-05-03T01:07:17.966Z,15.28
2019-05-03T01:07:53.441Z,15.00
2019-05-03T01:08:28.902Z,15.47
2019-05-03T01:09:07.366Z,15.30
2019-05-03T01:09:42.836Z,15.10
2019-05-03T01:10:18.297Z,15.00
2019-05-03T01:10:53.758Z,15.13
2019-05-03T01:11:29.197Z,15.17
2019-05-03T01:12:05.026Z,14.20
2019-05-03T01:12:41.678Z,14.87
2019-05-03T01:13:17.167Z,15.40
2019-05-03T01:13:53.050Z,15.43
2019-05-03T01:14:28.493Z,15.43
2019-05-03T01:15:06.354Z,15.20
2019-05-03T01:15:52.089Z,15.50
2019-05-03T01:16:27.573Z,14.73
2019-05-03T01:17:03.062Z,14.93
2019-05-03T01:17:38.620Z,14.87
2019-05-03T01:18:16.231Z,15.23
2019-05-03T01:18:52.342Z,15.33
2019-05-03T01:19:28.644Z,14.83
2019-05-03T01:20:04.826Z,14.67
2019-05-03T01:20:42.173Z,14.83
2019-05-03T01:21:18.475Z,15.10
2019-05-03T01:21:53.930Z,15.00
2019-05-03T01:22:29.698Z,14.93
2019-05-03T01:23:06.369Z,14.63
2019-05-03T01:23:42.431Z,14.90
2019-05-03T01:24:18.529Z,14.15
2019-05-03T01:24:54.779Z,15.80
2019-05-03T01:25:35.204Z,15.60
2019-05-03T01:26:07.737Z,15.67
2019-05-03T01:26:43.199Z,15.43
2019-05-03T01:27:19.327Z,15.63
2019-05-03T01:27:54.833Z,15.97
2019-05-03T01:28:32.179Z,14.78
2019-05-03T01:29:07.902Z,15.20
2019-05-03T01:29:43.382Z,14.00
2019-05-03T01:30:18.940Z,15.13
2019-05-03T01:30:54.910Z,15.40
2019-05-03T01:31:31.916Z,15.20
2019-05-03T01:32:08.054Z,14.78
2019-05-03T01:32:43.744Z,14.93
2019-05-03T01:33:19.234Z,15.78
2019-05-03T01:33:55.080Z,15.43
2019-05-03T01:34:32.669Z,16.13
2019-05-03T01:35:08.346Z,14.90
2019-05-03T01:35:43.810Z,15.80
2019-05-03T01:36:19.592Z,15.43
2019-05-03T01:36:55.374Z,15.70
2019-05-03T01:37:31.899Z,15.32
2019-05-03T01:38:08.125Z,16.20
2019-05-03T01:38:43.958Z,14.90
2019-05-03T01:39:19.664Z,15.00
2019-05-03T01:39:55.126Z,15.03
2019-05-03T01:40:32.637Z,14.67
2019-05-03T01:41:08.880Z,15.00
2019-05-03T01:41:44.879Z,15.63
2019-05-03T01:42:22.465Z,15.13
2019-05-03T01:42:57.906Z,14.87
2019-05-03T01:43:33.484Z,13.13
2019-05-03T01:44:09.486Z,13.80
2019-05-03T01:44:45.439Z,13.00
2019-05-03T01:45:22.735Z,12.87
2019-05-03T01:45:58.372Z,11.40
2019-05-03T01:46:34.201Z,12.63
2019-05-03T01:47:13.309Z,11.60
2019-05-03T01:47:54.982Z,12.50
2019-05-03T01:48:45.083Z,11.67
2019-05-03T01:49:32.099Z,11.27
2019-05-03T01:50:18.205Z,10.10
2019-05-03T01:51:19.198Z,11.43
2019-05-03T01:52:13.598Z,10.37
2019-05-03T01:52:49.450Z,10.97
2019-05-03T01:53:25.882Z,11.00
2019-05-03T01:54:01.751Z,10.47
2019-05-03T01:54:37.540Z,10.57
2019-05-03T01:55:15.841Z,11.00
2019-05-03T01:55:53.913Z,11.80
2019-05-03T01:56:29.347Z,11.30
2019-05-03T01:57:04.844Z,10.67
2019-05-03T01:57:41.897Z,10.67
2019-05-03T01:58:17.988Z,10.53
2019-05-03T01:58:53.563Z,10.80
2019-05-03T01:59:29.368Z,10.90
2019-05-03T02:00:08.438Z,9.93
2019-05-03T02:00:44.082Z,9.27
2019-05-03T02:01:47.318Z,9.77
2019-05-03T02:02:38.370Z,9.20
2019-05-03T02:03:21.800Z,8.90
2019-05-03T02:04:06.043Z,9.47
2019-05-03T02:04:48.631Z,9.30
2019-05-03T02:05:43.577Z,8.40
2019-05-03T02:06:19.008Z,8.23
2019-05-03T02:06:54.521Z,9.00
2019-05-03T02:07:31.641Z,8.77
2019-05-03T02:08:07.270Z,9.37
2019-05-03T02:08:43.079Z,8.87
2019-05-03T02:09:18.894Z,9.23
2019-05-03T02:09:54.653Z,8.63
2019-05-03T02:10:32.170Z,9.03
2019-05-03T02:11:07.918Z,9.83
2019-05-03T02:11:43.405Z,9.77
2019-05-03T02:12:18.875Z,10.13
2019-05-03T02:12:54.705Z,10.20
2019-05-03T02:13:32.028Z,10.10
2019-05-03T02:14:07.478Z,9.57
2019-05-03T02:14:42.931Z,10.87
2019-05-03T02:15:18.398Z,10.33
2019-05-03T02:15:54.220Z,11.43
2019-05-03T02:16:29.692Z,11.50
2019-05-03T02:17:05.474Z,10.90
2019-05-03T02:17:42.710Z,11.73
2019-05-03T02:18:19.056Z,11.93
2019-05-03T02:18:54.480Z,12.33
2019-05-03T02:19:29.938Z,12.80
2019-05-03T02:20:05.821Z,12.43
2019-05-03T02:20:41.820Z,12.77
2019-05-03T02:21:17.506Z,12.80
2019-05-03T02:21:52.951Z,12.50
2019-05-03T02:22:28.876Z,12.93
2019-05-03T02:23:04.505Z,12.43
2019-05-03T02:23:42.467Z,12.60
2019-05-03T02:24:17.588Z,12.43
2019-05-03T02:24:53.059Z,12.43
2019-05-03T02:25:28.630Z,11.73
2019-05-03T02:26:04.113Z,11.80
2019-05-03T02:26:39.632Z,11.67
2019-05-03T02:27:15.095Z,12.77
2019-05-03T02:27:52.665Z,11.80
2019-05-03T02:28:28.302Z,11.47
2019-05-03T02:29:04.288Z,11.57
2019-05-03T02:29:41.854Z,11.07
2019-05-03T02:30:17.420Z,11.30
2019-05-03T02:30:53.546Z,10.70
2019-05-03T02:31:29.233Z,10.93
2019-05-03T02:32:05.214Z,10.87
2019-05-03T02:32:43.803Z,11.47
2019-05-03T02:33:18.595Z,10.40
2019-05-03T02:33:54.835Z,11.90
2019-05-03T02:34:32.715Z,11.77
2019-05-03T02:35:07.902Z,11.83
2019-05-03T02:35:43.413Z,11.90
2019-05-03T02:36:18.886Z,12.13
2019-05-03T02:36:54.345Z,11.83
2019-05-03T02:37:32.872Z,12.60
2019-05-03T02:38:08.003Z,12.20
2019-05-03T02:38:43.503Z,12.10
2019-05-03T02:39:22.633Z,11.67
2019-05-03T02:39:58.019Z,12.47
2019-05-03T02:40:33.957Z,11.67
2019-05-03T02:41:09.735Z,11.50
2019-05-03T02:41:48.437Z,11.63
2019-05-03T02:42:26.644Z,12.67
2019-05-03T02:43:26.015Z,11.13
2019-05-03T02:44:01.700Z,12.13
2019-05-03T02:44:37.544Z,11.20
2019-05-03T02:45:19.607Z,11.13
2019-05-03T02:46:25.319Z,11.60
2019-05-03T02:47:19.401Z,11.50
2019-05-03T02:48:07.630Z,11.90
2019-05-03T02:48:50.260Z,11.40
2019-05-03T02:49:35.560Z,12.17
2019-05-03T02:50:16.664Z,12.40
2019-05-03T02:50:51.789Z,11.37
2019-05-03T02:51:27.227Z,12.07
2019-05-03T02:52:02.694Z,12.40
2019-05-03T02:52:38.463Z,11.93
2019-05-03T02:53:15.686Z,12.30
2019-05-03T02:53:51.248Z,11.90
2019-05-03T02:54:27.282Z,11.27
2019-05-03T02:55:05.860Z,11.47
2019-05-03T02:55:40.568Z,11.50
2019-05-03T02:56:22.250Z,11.87
2019-05-03T02:56:55.757Z,11.67
2019-05-03T02:57:30.434Z,11.57
2019-05-03T02:58:06.094Z,12.53
2019-05-03T02:58:42.047Z,12.30
2019-05-03T02:59:17.611Z,12.23
2019-05-03T02:59:54.952Z,12.13
2019-05-03T03:00:59.609Z,12.00
2019-05-03T03:01:36.075Z,12.17
2019-05-03T03:02:12.256Z,11.93
2019-05-03T03:02:47.747Z,12.80
2019-05-03T03:03:25.502Z,11.73
2019-05-03T03:04:01.753Z,12.53
2019-05-03T03:04:37.596Z,12.57
2019-05-03T03:05:16.484Z,12.40
2019-05-03T03:05:55.961Z,12.43
2019-05-03T03:06:32.925Z,12.20
2019-05-03T03:07:08.646Z,12.80
2019-05-03T03:07:47.000Z,13.30
2019-05-03T03:08:25.403Z,13.20
2019-05-03T03:09:01.322Z,13.33
2019-05-03T03:09:37.232Z,14.23
2019-05-03T03:10:16.012Z,13.60
2019-05-03T03:10:51.820Z,12.93
2019-05-03T03:11:30.204Z,13.90
2019-05-03T03:12:07.797Z,13.47
2019-05-03T03:12:46.455Z,13.57
2019-05-03T03:13:25.570Z,13.60
2019-05-03T03:14:05.706Z,13.13
2019-05-03T03:14:41.612Z,13.60
2019-05-03T03:15:17.175Z,13.77
2019-05-03T03:15:55.311Z,14.33
2019-05-03T03:16:36.320Z,13.53
2019-05-03T03:17:14.920Z,12.93
2019-05-03T03:17:56.026Z,13.90
2019-05-03T03:18:36.491Z,13.77
2019-05-03T03:19:15.907Z,14.37
2019-05-03T03:19:55.242Z,13.40
2019-05-03T03:20:32.724Z,13.73
2019-05-03T03:21:12.359Z,13.93
2019-05-03T03:21:49.884Z,13.90
2019-05-03T03:22:27.049Z,12.53
2019-05-03T03:23:06.139Z,12.80
2019-05-03T03:23:56.210Z,11.77
2019-05-03T03:24:36.129Z,13.03
2019-05-03T03:25:17.820Z,13.40
2019-05-03T03:25:55.841Z,13.50
2019-05-03T03:26:38.205Z,13.67
2019-05-03T03:27:12.223Z,13.57
2019-05-03T03:27:50.243Z,13.10
2019-05-03T03:28:27.704Z,13.30
2019-05-03T03:29:06.036Z,13.20
2019-05-03T03:29:45.906Z,13.53
2019-05-03T03:30:48.626Z,13.53
2019-05-03T03:31:30.141Z,13.00
2019-05-03T03:32:30.009Z,14.20
2019-05-03T03:33:09.404Z,14.00
2019-05-03T03:33:47.424Z,14.27
2019-05-03T03:34:28.075Z,13.57
2019-05-03T03:35:13.181Z,13.67
2019-05-03T03:35:49.441Z,13.83
2019-05-03T03:36:45.996Z,14.53
2019-05-03T03:37:06.560Z,13.77
2019-05-03T03:37:41.467Z,13.90
2019-05-03T03:38:17.325Z,14.07
2019-05-03T03:38:55.380Z,14.17
2019-05-03T03:39:30.319Z,13.47
2019-05-03T03:40:06.312Z,13.20
2019-05-03T03:40:45.324Z,14.50
2019-05-03T03:41:21.009Z,14.53
2019-05-03T03:41:57.305Z,14.47
2019-05-03T03:42:36.050Z,14.30
2019-05-03T03:43:15.655Z,13.90
2019-05-03T03:43:55.743Z,14.17
2019-05-03T03:44:31.154Z,14.40
2019-05-03T03:45:07.139Z,14.13
2019-05-03T03:45:45.452Z,14.27
2019-05-03T03:46:25.157Z,14.47
2019-05-03T03:47:05.101Z,13.73
2019-05-03T03:47:40.434Z,14.60
2019-05-03T03:48:19.691Z,14.83
2019-05-03T03:48:57.109Z,14.37
2019-05-03T03:49:35.580Z,14.97
2019-05-03T03:50:11.757Z,14.77
2019-05-03T03:50:50.359Z,14.50
2019-05-03T03:51:28.868Z,14.50
2019-05-03T03:52:06.121Z,14.73
2019-05-03T03:52:45.139Z,14.23
2019-05-03T03:53:22.828Z,14.20
2019-05-03T03:53:59.754Z,14.37
2019-05-03T03:54:36.713Z,14.87
2019-05-03T03:55:12.242Z,14.83
2019-05-03T03:55:49.342Z,14.77
2019-05-03T03:56:28.075Z,14.53
2019-05-03T03:57:08.218Z,14.27
2019-05-03T03:57:46.519Z,13.97
2019-05-03T03:58:22.774Z,15.03
2019-05-03T03:58:57.868Z,13.97
2019-05-03T03:59:36.288Z,14.40
2019-05-03T04:00:12.780Z,14.07
2019-05-03T04:00:48.579Z,14.27
2019-05-03T04:01:26.682Z,14.00
2019-05-03T04:02:01.707Z,14.67
2019-05-03T04:02:38.444Z,13.60
2019-05-03T04:03:15.798Z,13.90
2019-05-03T04:03:51.383Z,13.47
2019-05-03T04:04:28.046Z,15.37
2019-05-03T04:05:05.572Z,15.00
2019-05-03T04:05:41.180Z,14.80
2019-05-03T04:06:16.767Z,14.33
2019-05-03T04:06:55.741Z,15.07
2019-05-03T04:07:31.471Z,14.60
2019-05-03T04:08:07.386Z,13.93
2019-05-03T04:08:45.159Z,15.17
2019-05-03T04:09:20.652Z,15.13
2019-05-03T04:09:56.610Z,15.00
2019-05-03T04:10:32.061Z,13.83
2019-05-03T04:11:07.724Z,15.33
2019-05-03T04:11:46.171Z,15.87
2019-05-03T04:12:26.402Z,14.93
2019-05-03T04:13:00.095Z,15.70
2019-05-03T04:13:36.648Z,15.10
2019-05-03T04:14:16.636Z,16.27
2019-05-03T04:15:08.729Z,15.90
2019-05-03T04:15:57.577Z,16.07
2019-05-03T04:16:45.299Z,16.57
2019-05-03T04:17:48.664Z,17.20
2019-05-03T04:18:45.798Z,15.73
2019-05-03T04:19:25.242Z,15.43
2019-05-03T04:20:01.518Z,15.83
2019-05-03T04:20:37.536Z,15.77
2019-05-03T04:21:13.089Z,16.17
2019-05-03T04:21:48.982Z,15.97
2019-05-03T04:22:25.364Z,15.93
2019-05-03T04:23:01.058Z,14.77
2019-05-03T04:23:36.635Z,15.70
2019-05-03T04:24:12.121Z,14.73
2019-05-03T04:24:47.595Z,14.77
2019-05-03T04:25:25.857Z,15.20
2019-05-03T04:26:00.974Z,14.37
2019-05-03T04:26:37.334Z,15.77
2019-05-03T04:27:22.221Z,15.57
2019-05-03T04:27:50.729Z,13.80
2019-05-03T04:28:26.575Z,14.20
2019-05-03T04:29:05.067Z,13.77
2019-05-03T04:29:39.650Z,14.30
2019-05-03T04:30:16.426Z,14.13
2019-05-03T04:30:55.201Z,14.13
2019-05-03T04:31:29.618Z,13.83
2019-05-03T04:32:06.193Z,12.87
2019-05-03T04:32:41.706Z,13.17
2019-05-03T04:33:17.790Z,13.03
2019-05-03T04:33:56.274Z,13.50
2019-05-03T04:34:30.830Z,13.43
2019-05-03T04:35:06.587Z,13.17
2019-05-03T04:35:42.175Z,13.53
2019-05-03T04:36:17.616Z,12.80
2019-05-03T04:36:55.417Z,13.00
2019-05-03T04:37:30.649Z,13.30
2019-05-03T04:38:06.237Z,12.90
2019-05-03T04:38:41.830Z,13.20
2019-05-03T04:39:20.215Z,13.23
2019-05-03T04:39:56.058Z,13.13
2019-05-03T04:40:35.393Z,14.17
2019-05-03T04:41:09.796Z,12.97
2019-05-03T04:41:45.473Z,12.93
2019-05-03T04:42:21.080Z,12.77
2019-05-03T04:42:56.568Z,12.73
2019-05-03T04:43:32.011Z,13.57
2019-05-03T04:44:07.863Z,13.73
2019-05-03T04:44:45.683Z,12.90
2019-05-03T04:45:20.934Z,13.10
2019-05-03T04:46:06.657Z,13.37
2019-05-03T04:46:42.364Z,12.90
2019-05-03T04:47:17.827Z,13.23
2019-05-03T04:47:55.659Z,13.03
2019-05-03T04:48:30.436Z,13.77
2019-05-03T04:49:07.516Z,13.07
2019-05-03T04:49:45.992Z,13.20
2019-05-03T04:50:20.553Z,12.40
2019-05-03T04:50:56.020Z,13.40
2019-05-03T04:51:31.470Z,12.70
2019-05-03T04:52:06.979Z,13.80
2019-05-03T04:52:46.023Z,12.70
2019-05-03T04:53:20.033Z,12.33
2019-05-03T04:54:16.015Z,13.47
2019-05-03T04:54:56.350Z,12.37
2019-05-03T04:55:32.199Z,12.53
2019-05-03T04:56:08.081Z,13.00
2019-05-03T04:56:46.190Z,12.57
2019-05-03T04:57:35.110Z,13.17
2019-05-03T04:57:58.020Z,12.93
2019-05-03T04:58:36.113Z,11.77
2019-05-03T04:59:11.126Z,12.50
2019-05-03T04:59:46.596Z,12.67
2019-05-03T05:00:25.362Z,12.57
2019-05-03T05:00:59.848Z,12.43
2019-05-03T05:01:35.416Z,11.67
2019-05-03T05:02:10.928Z,12.50
2019-05-03T05:02:46.867Z,12.17
2019-05-03T05:03:22.611Z,11.10
2019-05-03T05:03:58.087Z,12.57
2019-05-03T05:04:35.791Z,11.70
2019-05-03T05:05:11.159Z,12.03
2019-05-03T05:05:46.620Z,12.20
2019-05-03T05:06:22.100Z,11.80
2019-05-03T05:06:57.895Z,11.93
2019-05-03T05:07:35.063Z,12.40
2019-05-03T05:08:11.192Z,11.67
2019-05-03T05:08:46.711Z,12.13
2019-05-03T05:09:22.256Z,12.20
2019-05-03T05:09:57.739Z,11.60
2019-05-03T05:10:33.229Z,11.90
2019-05-03T05:11:10.634Z,11.63
2019-05-03T05:11:46.601Z,12.17
2019-05-03T05:12:22.064Z,11.70
2019-05-03T05:12:57.552Z,12.33
2019-05-03T05:13:35.604Z,11.93
2019-05-03T05:14:10.706Z,11.70
2019-05-03T05:14:46.169Z,11.57
2019-05-03T05:15:21.969Z,11.57
2019-05-03T05:15:57.797Z,11.57
2019-05-03T05:16:35.615Z,11.80
2019-05-03T05:17:12.928Z,11.53
2019-05-03T05:17:56.309Z,11.73
2019-05-03T05:18:35.915Z,11.47
2019-05-03T05:19:15.163Z,11.10
2019-05-03T05:20:00.795Z,11.63
2019-05-03T05:20:46.598Z,11.10
2019-05-03T05:21:25.444Z,11.20
2019-05-03T05:22:05.897Z,12.20
2019-05-03T05:22:40.954Z,12.13
2019-05-03T05:23:16.409Z,10.50
2019-05-03T05:24:17.330Z,11.73
2019-05-03T05:24:55.151Z,10.70
2019-05-03T05:25:35.416Z,11.77
2019-05-03T05:26:16.362Z,10.73
2019-05-03T05:27:05.369Z,10.73
2019-05-03T05:28:01.943Z,11.80
2019-05-03T05:28:58.293Z,11.63
2019-05-03T05:29:34.642Z,9.83
2019-05-03T05:30:11.426Z,10.60
2019-05-03T05:30:47.778Z,9.93
2019-05-03T05:31:25.318Z,10.73
2019-05-03T05:32:00.399Z,10.97
2019-05-03T05:32:36.505Z,11.03
2019-05-03T05:33:20.718Z,10.87
2019-05-03T05:33:56.971Z,10.43
2019-05-03T05:34:34.784Z,10.73
2019-05-03T05:35:10.425Z,9.97
2019-05-03T05:35:46.514Z,10.50
2019-05-03T05:36:22.086Z,11.23
2019-05-03T05:36:57.552Z,10.93
2019-05-03T05:37:35.127Z,10.80
2019-05-03T05:38:10.624Z,11.73
2019-05-03T05:38:46.489Z,10.00
2019-05-03T05:39:21.936Z,11.37
2019-05-03T05:39:57.411Z,11.30
2019-05-03T05:40:34.911Z,10.63
2019-05-03T05:41:11.052Z,11.50
2019-05-03T05:41:46.774Z,11.53
2019-05-03T05:42:22.575Z,11.67
2019-05-03T05:42:58.037Z,11.07
2019-05-03T05:43:35.536Z,11.40
2019-05-03T05:44:10.814Z,11.20
2019-05-03T05:44:46.746Z,11.13
2019-05-03T05:45:24.419Z,10.93
2019-05-03T05:45:59.412Z,11.53
2019-05-03T05:46:42.443Z,12.13
2019-05-03T05:47:46.804Z,11.90
2019-05-03T05:48:30.952Z,11.77
2019-05-03T05:49:07.469Z,11.33
2019-05-03T05:49:54.577Z,11.07
2019-05-03T05:50:55.347Z,12.60
2019-05-03T05:51:30.795Z,11.47
2019-05-03T05:52:06.356Z,11.80
2019-05-03T05:52:41.880Z,13.07
2019-05-03T05:53:17.726Z,11.90
2019-05-03T05:53:54.943Z,13.00
2019-05-03T05:54:30.422Z,12.50
2019-05-03T05:55:26.918Z,12.50
2019-05-03T05:56:31.438Z,12.57
2019-05-03T05:57:26.124Z,12.27
2019-05-03T05:58:08.452Z,12.07
2019-05-03T05:59:18.515Z,12.00
2019-05-03T05:59:59.132Z,12.80
2019-05-03T06:00:46.190Z,12.47
2019-05-03T06:01:25.579Z,12.90
2019-05-03T06:02:04.920Z,12.30
2019-05-03T06:02:40.479Z,12.57
2019-05-03T06:03:15.994Z,13.50
2019-05-03T06:03:51.545Z,13.40
2019-05-03T06:04:27.040Z,12.87
2019-05-03T06:05:04.815Z,13.33
2019-05-03T06:05:41.055Z,14.13
2019-05-03T06:06:24.421Z,13.20
2019-05-03T06:07:24.856Z,13.70
2019-05-03T06:08:18.676Z,13.93
2019-05-03T06:09:11.870Z,14.17
2019-05-03T06:09:54.972Z,13.50
2019-05-03T06:10:58.678Z,12.93
2019-05-03T06:11:51.561Z,13.63
2019-05-03T06:12:35.229Z,13.33
2019-05-03T06:13:21.176Z,14.10
2019-05-03T06:14:18.521Z,12.73
2019-05-03T06:14:57.555Z,12.97
2019-05-03T06:15:39.505Z,12.53
2019-05-03T06:16:29.284Z,13.33
2019-05-03T06:17:10.877Z,14.07
2019-05-03T06:17:50.934Z,13.80
2019-05-03T06:18:35.385Z,14.13
2019-05-03T06:19:14.965Z,14.30
2019-05-03T06:19:58.725Z,14.50
2019-05-03T06:20:41.937Z,14.63
2019-05-03T06:21:22.578Z,14.80
2019-05-03T06:22:11.168Z,14.87
2019-05-03T06:22:50.190Z,15.43
2019-05-03T06:23:30.345Z,14.60
2019-05-03T06:24:10.870Z,15.53
2019-05-03T06:24:51.436Z,15.33
2019-05-03T06:25:39.473Z,13.90
2019-05-03T06:26:34.523Z,15.07
2019-05-03T06:27:24.371Z,15.33
2019-05-03T06:28:01.598Z,13.93
2019-05-03T06:28:37.078Z,14.07
2019-05-03T06:29:14.814Z,13.83
2019-05-03T06:29:50.796Z,15.47
2019-05-03T06:30:45.739Z,14.37
2019-05-03T06:31:29.518Z,14.13
2019-05-03T06:32:29.914Z,13.90
2019-05-03T06:33:05.455Z,14.60
2019-05-03T06:33:41.669Z,14.57
2019-05-03T06:34:17.162Z,14.80
2019-05-03T06:34:54.543Z,15.50
2019-05-03T06:35:30.217Z,14.90
2019-05-03T06:36:05.815Z,14.13
2019-05-03T06:36:44.267Z,14.37
2019-05-03T06:37:21.515Z,15.20
2019-05-03T06:37:57.020Z,14.37
2019-05-03T06:38:34.435Z,13.97
2019-05-03T06:39:10.067Z,14.60
2019-05-03T06:39:45.600Z,13.63
2019-05-03T06:40:21.093Z,13.33
2019-05-03T06:40:57.280Z,12.67
2019-05-03T06:41:35.202Z,12.40
2019-05-03T06:42:17.469Z,12.90
2019-05-03T06:42:54.129Z,12.33
2019-05-03T06:43:25.246Z,12.37
2019-05-03T06:44:00.737Z,13.37
2019-05-03T06:44:36.458Z,12.27
2019-05-03T06:45:12.570Z,14.53
2019-05-03T06:45:50.441Z,12.97
2019-05-03T06:46:45.569Z,13.87
2019-05-03T06:47:20.794Z,13.30
2019-05-03T06:47:56.686Z,13.37
2019-05-03T06:48:34.793Z,13.90
2019-05-03T06:49:11.054Z,13.37
2019-05-03T06:49:48.420Z,14.57
2019-05-03T06:50:28.710Z,14.13
2019-05-03T06:51:08.699Z,13.70
2019-05-03T06:51:40.085Z,14.20
2019-05-03T06:52:19.726Z,14.37
2019-05-03T06:52:54.818Z,14.13
2019-05-03T06:53:31.027Z,13.40
2019-05-03T06:54:06.841Z,13.23
2019-05-03T06:54:42.312Z,14.47
2019-05-03T06:55:17.830Z,15.33
2019-05-03T06:55:55.248Z,13.87
2019-05-03T06:56:30.593Z,13.40
2019-05-03T06:57:09.477Z,13.00
2019-05-03T06:57:49.614Z,12.80
2019-05-03T06:58:31.220Z,14.13
2019-05-03T06:59:00.723Z,13.40
2019-05-03T06:59:50.689Z,14.47
2019-05-03T07:00:48.465Z,13.47
2019-05-03T07:01:30.491Z,12.77
2019-05-03T07:02:28.411Z,13.27
2019-05-03T07:03:08.230Z,13.90
2019-05-03T07:03:48.816Z,13.27
2019-05-03T07:04:27.726Z,13.87
2019-05-03T07:05:05.106Z,14.10
2019-05-03T07:05:58.897Z,13.17
2019-05-03T07:06:48.784Z,12.17
2019-05-03T07:07:39.992Z,13.00
2019-05-03T07:08:34.421Z,11.37
2019-05-03T07:09:28.395Z,11.53
2019-05-03T07:10:24.949Z,11.95
2019-05-03T07:11:01.266Z,12.27
2019-05-03T07:11:36.996Z,11.87
2019-05-03T07:12:14.695Z,10.77
2019-05-03T07:13:01.204Z,12.07
2019-05-03T07:13:37.294Z,11.43
2019-05-03T07:14:15.572Z,11.50
2019-05-03T07:14:51.215Z,11.70
2019-05-03T07:15:27.174Z,12.27
2019-05-03T07:16:04.680Z,11.23
2019-05-03T07:16:40.961Z,11.33
2019-05-03T07:17:16.757Z,10.63
2019-05-03T07:17:52.301Z,10.37
2019-05-03T07:18:28.234Z,9.87
2019-05-03T07:19:04.474Z,10.50
2019-05-03T07:19:40.109Z,10.43
2019-05-03T07:20:16.072Z,9.23
2019-05-03T07:20:57.240Z,10.20
2019-05-03T07:21:35.426Z,10.77
2019-05-03T07:22:11.298Z,10.77
2019-05-03T07:22:47.018Z,9.73
2019-05-03T07:23:24.339Z,10.90
2019-05-03T07:23:59.869Z,10.47
2019-05-03T07:24:40.342Z,10.07
2019-05-03T07:25:12.550Z,9.53
2019-05-03T07:25:48.383Z,9.67
2019-05-03T07:26:25.400Z,9.73
2019-05-03T07:27:00.996Z,9.00
2019-05-03T07:27:36.910Z,8.97
2019-05-03T07:28:15.051Z,9.20
2019-05-03T07:28:50.282Z,9.13
2019-05-03T07:29:25.943Z,9.07
2019-05-03T07:30:01.379Z,9.07
2019-05-03T07:30:37.444Z,8.90
2019-05-03T07:31:15.124Z,8.67
2019-05-03T07:31:51.419Z,8.77
2019-05-03T07:32:27.189Z,8.60
2019-05-03T07:33:06.526Z,8.50
2019-05-03T07:33:42.072Z,9.50
2019-05-03T07:34:17.898Z,8.67
2019-05-03T07:34:55.554Z,9.50
2019-05-03T07:35:31.072Z,9.23
2019-05-03T07:36:06.563Z,8.33
2019-05-03T07:36:42.167Z,9.30
2019-05-03T07:37:17.934Z,8.80
2019-05-03T07:37:55.329Z,8.70
2019-05-03T07:38:31.236Z,8.78
2019-05-03T07:39:08.498Z,8.37
2019-05-03T07:39:45.268Z,8.67
2019-05-03T07:40:21.202Z,8.80
2019-05-03T07:40:56.664Z,8.87
2019-05-03T07:41:32.418Z,8.30
2019-05-03T07:42:07.927Z,8.40
2019-05-03T07:42:44.988Z,8.33
2019-05-03T07:43:20.951Z,8.45
2019-05-03T07:43:56.400Z,9.53
2019-05-03T07:44:31.863Z,8.27
2019-05-03T07:45:08.131Z,7.90
2019-05-03T07:45:45.330Z,8.05
2019-05-03T07:46:20.880Z,7.77
2019-05-03T07:46:56.883Z,8.25
2019-05-03T07:47:32.324Z,7.90
2019-05-03T07:48:07.864Z,7.55
2019-05-03T07:48:45.551Z,8.10
2019-05-03T07:49:21.424Z,7.33
2019-05-03T07:49:56.892Z,6.65
2019-05-03T07:50:33.303Z,7.35
2019-05-03T07:51:10.155Z,7.15
2019-05-03T07:51:45.899Z,7.40
2019-05-03T07:52:21.686Z,7.62
2019-05-03T07:52:57.120Z,7.17
2019-05-03T07:53:34.862Z,6.85
2019-05-03T07:54:10.622Z,7.10
2019-05-03T07:54:46.368Z,6.70
2019-05-03T07:55:41.702Z,7.03
2019-05-03T07:56:18.301Z,6.93
2019-05-03T07:56:57.653Z,7.03
2019-05-03T07:57:48.064Z,7.25
2019-05-03T07:58:25.305Z,7.20
2019-05-03T07:59:06.213Z,6.90
2019-05-03T07:59:40.629Z,7.73
2019-05-03T08:00:19.333Z,7.53
2019-05-03T08:01:05.824Z,7.12
2019-05-03T08:01:36.800Z,7.07
2019-05-03T08:02:14.488Z,7.10
2019-05-03T08:02:49.976Z,7.73
2019-05-03T08:03:25.951Z,7.83
2019-05-03T08:04:01.399Z,7.53
2019-05-03T08:04:36.892Z,7.60
2019-05-03T08:05:15.441Z,7.12
2019-05-03T08:05:51.578Z,7.42
2019-05-03T08:06:27.045Z,7.92
2019-05-03T08:07:04.392Z,7.90
2019-05-03T08:07:40.264Z,9.53
2019-05-03T08:08:15.741Z,9.00
2019-05-03T08:08:51.808Z,9.15
2019-05-03T08:09:27.316Z,8.95
2019-05-03T08:10:05.420Z,9.43
2019-05-03T08:10:40.785Z,9.93
2019-05-03T08:11:16.270Z,10.03
2019-05-03T08:11:51.715Z,9.67
2019-05-03T08:12:27.254Z,10.03
2019-05-03T08:13:04.654Z,9.07
2019-05-03T08:13:41.082Z,9.50
2019-05-03T08:14:18.237Z,9.43
2019-05-03T08:14:55.142Z,10.27
2019-05-03T08:15:30.864Z,9.30
2019-05-03T08:16:06.381Z,9.63
2019-05-03T08:16:42.224Z,9.13
2019-05-03T08:17:17.985Z,10.33
2019-05-03T08:17:55.316Z,9.70
2019-05-03T08:18:30.580Z,10.33
2019-05-03T08:19:06.823Z,9.97
2019-05-03T08:19:44.657Z,10.20